sensor_id;sensor_type;location;lat;lon;timestamp;temperature;humidity
22006;DHT22;11167;46.988;15.470;2024-02-21T00:00:08;9.20;73.00
22006;DHT22;11167;46.988;15.470;2024-02-21T00:02:11;9.20;73.10
22006;DHT22;11167;46.988;15.470;2024-02-21T00:04:12;9.10;73.00
22006;DHT22;11167;46.988;15.470;2024-02-21T00:06:13;9.10;73.10
22006;DHT22;11167;46.988;15.470;2024-02-21T00:08:15;9.10;73.70
22006;DHT22;11167;46.988;15.470;2024-02-21T00:10:16;9.10;73.10
22006;DHT22;11167;46.988;15.470;2024-02-21T00:12:17;9.00;73.10
22006;DHT22;11167;46.988;15.470;2024-02-21T00:14:19;9.00;72.90
22006;DHT22;11167;46.988;15.470;2024-02-21T00:16:20;9.00;73.90
22006;DHT22;11167;46.988;15.470;2024-02-21T00:18:21;9.00;73.00
22006;DHT22;11167;46.988;15.470;2024-02-21T00:20:23;9.00;73.10
22006;DHT22;11167;46.988;15.470;2024-02-21T00:22:26;8.90;73.10
22006;DHT22;11167;46.988;15.470;2024-02-21T00:24:28;8.90;72.90
22006;DHT22;11167;46.988;15.470;2024-02-21T00:26:30;8.90;72.90
22006;DHT22;11167;46.988;15.470;2024-02-21T00:28:31;8.90;73.10
22006;DHT22;11167;46.988;15.470;2024-02-21T00:30:32;8.80;73.00
22006;DHT22;11167;46.988;15.470;2024-02-21T00:32:33;8.80;73.00
22006;DHT22;11167;46.988;15.470;2024-02-21T00:34:35;8.80;72.90
22006;DHT22;11167;46.988;15.470;2024-02-21T00:36:36;8.80;73.00
22006;DHT22;11167;46.988;15.470;2024-02-21T00:38:38;8.80;73.00
22006;DHT22;11167;46.988;15.470;2024-02-21T00:40:40;8.70;73.00
22006;DHT22;11167;46.988;15.470;2024-02-21T00:42:41;8.70;72.90
22006;DHT22;11167;46.988;15.470;2024-02-21T00:44:42;8.70;73.10
22006;DHT22;11167;46.988;15.470;2024-02-21T00:46:43;8.70;73.10
22006;DHT22;11167;46.988;15.470;2024-02-21T00:48:44;8.60;73.00
22006;DHT22;11167;46.988;15.470;2024-02-21T00:50:46;8.60;73.00
22006;DHT22;11167;46.988;15.470;2024-02-21T00:52:47;8.60;72.90
22006;DHT22;11167;46.988;15.470;2024-02-21T00:54:49;8.60;73.10
22006;DHT22;11167;46.988;15.470;2024-02-21T00:56:50;8.60;73.00
22006;DHT22;11167;46.988;15.470;2024-02-21T00:58:51;8.50;73.10
22006;DHT22;11167;46.988;15.470;2024-02-21T01:00:52;8.50;73.00
22006;DHT22;11167;46.988;15.470;2024-02-21T01:02:54;8.50;73.00
22006;DHT22;11167;46.988;15.470;2024-02-21T01:04:55;8.40;73.00
22006;DHT22;11167;46.988;15.470;2024-02-21T01:06:56;8.40;73.00
22006;DHT22;11167;46.988;15.470;2024-02-21T01:08:58;8.40;73.00
22006;DHT22;11167;46.988;15.470;2024-02-21T01:11:00;8.40;73.00
22006;DHT22;11167;46.988;15.470;2024-02-21T01:13:01;8.40;73.10
22006;DHT22;11167;46.988;15.470;2024-02-21T01:15:02;8.30;73.00
22006;DHT22;11167;46.988;15.470;2024-02-21T01:17:04;8.30;73.10
22006;DHT22;11167;46.988;15.470;2024-02-21T01:19:07;8.30;73.00
22006;DHT22;11167;46.988;15.470;2024-02-21T01:21:08;8.30;73.80
22006;DHT22;11167;46.988;15.470;2024-02-21T01:23:10;8.30;73.10
22006;DHT22;11167;46.988;15.470;2024-02-21T01:25:11;8.30;73.00
22006;DHT22;11167;46.988;15.470;2024-02-21T01:27:13;8.20;73.10
22006;DHT22;11167;46.988;15.470;2024-02-21T01:29:14;8.20;73.10
22006;DHT22;11167;46.988;15.470;2024-02-21T01:31:15;8.20;73.20
22006;DHT22;11167;46.988;15.470;2024-02-21T01:33:16;8.20;73.20
22006;DHT22;11167;46.988;15.470;2024-02-21T01:35:17;8.10;73.10
22006;DHT22;11167;46.988;15.470;2024-02-21T01:37:19;8.10;73.00
22006;DHT22;11167;46.988;15.470;2024-02-21T01:39:20;8.10;73.00
22006;DHT22;11167;46.988;15.470;2024-02-21T01:41:21;8.10;73.20
22006;DHT22;11167;46.988;15.470;2024-02-21T01:43:22;8.10;73.20
22006;DHT22;11167;46.988;15.470;2024-02-21T01:45:23;8.10;73.10
22006;DHT22;11167;46.988;15.470;2024-02-21T01:47:24;8.00;73.20
22006;DHT22;11167;46.988;15.470;2024-02-21T01:49:26;8.00;73.20
22006;DHT22;11167;46.988;15.470;2024-02-21T01:51:28;8.00;73.20
22006;DHT22;11167;46.988;15.470;2024-02-21T01:53:31;8.00;73.20
22006;DHT22;11167;46.988;15.470;2024-02-21T01:55:33;8.00;73.20
22006;DHT22;11167;46.988;15.470;2024-02-21T01:57:35;8.00;73.20
22006;DHT22;11167;46.988;15.470;2024-02-21T01:59:36;7.90;73.10
22006;DHT22;11167;46.988;15.470;2024-02-21T02:01:37;7.90;73.50
22006;DHT22;11167;46.988;15.470;2024-02-21T02:03:39;7.90;73.20
22006;DHT22;11167;46.988;15.470;2024-02-21T02:05:41;7.90;74.00
22006;DHT22;11167;46.988;15.470;2024-02-21T02:07:42;7.90;73.20
22006;DHT22;11167;46.988;15.470;2024-02-21T02:09:43;7.80;73.20
22006;DHT22;11167;46.988;15.470;2024-02-21T02:11:44;7.80;73.30
22006;DHT22;11167;46.988;15.470;2024-02-21T02:13:46;7.80;73.30
22006;DHT22;11167;46.988;15.470;2024-02-21T02:15:48;7.80;73.30
22006;DHT22;11167;46.988;15.470;2024-02-21T02:17:49;7.80;73.30
22006;DHT22;11167;46.988;15.470;2024-02-21T02:19:51;7.80;73.30
22006;DHT22;11167;46.988;15.470;2024-02-21T02:21:56;7.80;73.30
22006;DHT22;11167;46.988;15.470;2024-02-21T02:23:59;7.70;73.30
22006;DHT22;11167;46.988;15.470;2024-02-21T02:26:00;7.70;73.40
22006;DHT22;11167;46.988;15.470;2024-02-21T02:28:06;7.70;73.30
22006;DHT22;11167;46.988;15.470;2024-02-21T02:30:09;7.70;73.30
22006;DHT22;11167;46.988;15.470;2024-02-21T02:32:10;7.70;73.30
22006;DHT22;11167;46.988;15.470;2024-02-21T02:34:11;7.70;73.30
22006;DHT22;11167;46.988;15.470;2024-02-21T02:36:13;7.70;73.40
22006;DHT22;11167;46.988;15.470;2024-02-21T02:38:14;7.70;73.40
22006;DHT22;11167;46.988;15.470;2024-02-21T02:40:16;7.60;73.30
22006;DHT22;11167;46.988;15.470;2024-02-21T02:42:17;7.60;73.40
22006;DHT22;11167;46.988;15.470;2024-02-21T02:44:18;7.60;73.40
22006;DHT22;11167;46.988;15.470;2024-02-21T02:46:19;7.60;73.40
22006;DHT22;11167;46.988;15.470;2024-02-21T02:48:21;7.60;73.50
22006;DHT22;11167;46.988;15.470;2024-02-21T02:50:24;7.60;73.40
22006;DHT22;11167;46.988;15.470;2024-02-21T02:52:26;7.60;73.50
22006;DHT22;11167;46.988;15.470;2024-02-21T02:54:27;7.60;73.50
22006;DHT22;11167;46.988;15.470;2024-02-21T02:56:28;7.60;73.50
22006;DHT22;11167;46.988;15.470;2024-02-21T02:58:29;7.50;73.60
22006;DHT22;11167;46.988;15.470;2024-02-21T03:00:31;7.50;73.50
22006;DHT22;11167;46.988;15.470;2024-02-21T03:02:34;7.50;73.60
22006;DHT22;11167;46.988;15.470;2024-02-21T03:04:35;7.50;73.30
22006;DHT22;11167;46.988;15.470;2024-02-21T03:06:37;7.50;73.40
22006;DHT22;11167;46.988;15.470;2024-02-21T03:08:38;7.50;73.60
22006;DHT22;11167;46.988;15.470;2024-02-21T03:10:41;7.50;73.60
22006;DHT22;11167;46.988;15.470;2024-02-21T03:12:42;7.40;73.50
22006;DHT22;11167;46.988;15.470;2024-02-21T03:14:43;7.40;73.50
22006;DHT22;11167;46.988;15.470;2024-02-21T03:16:44;7.40;73.60
22006;DHT22;11167;46.988;15.470;2024-02-21T03:18:45;7.40;73.60
22006;DHT22;11167;46.988;15.470;2024-02-21T03:20:47;7.40;73.60
22006;DHT22;11167;46.988;15.470;2024-02-21T03:22:49;7.40;73.60
22006;DHT22;11167;46.988;15.470;2024-02-21T03:24:50;7.40;73.50
22006;DHT22;11167;46.988;15.470;2024-02-21T03:26:51;7.40;73.60
22006;DHT22;11167;46.988;15.470;2024-02-21T03:28:52;7.40;73.60
22006;DHT22;11167;46.988;15.470;2024-02-21T03:30:53;7.40;73.60
22006;DHT22;11167;46.988;15.470;2024-02-21T03:32:54;7.40;73.60
22006;DHT22;11167;46.988;15.470;2024-02-21T03:34:56;7.30;73.60
22006;DHT22;11167;46.988;15.470;2024-02-21T03:36:57;7.30;73.60
22006;DHT22;11167;46.988;15.470;2024-02-21T03:39:00;7.30;73.60
22006;DHT22;11167;46.988;15.470;2024-02-21T03:41:01;7.30;73.50
22006;DHT22;11167;46.988;15.470;2024-02-21T03:43:02;7.30;73.60
22006;DHT22;11167;46.988;15.470;2024-02-21T03:45:04;7.30;73.60
22006;DHT22;11167;46.988;15.470;2024-02-21T03:47:06;7.30;73.60
22006;DHT22;11167;46.988;15.470;2024-02-21T03:49:07;7.30;73.60
22006;DHT22;11167;46.988;15.470;2024-02-21T03:51:08;7.30;73.70
22006;DHT22;11167;46.988;15.470;2024-02-21T03:53:10;7.30;73.60
22006;DHT22;11167;46.988;15.470;2024-02-21T03:55:11;7.30;73.70
22006;DHT22;11167;46.988;15.470;2024-02-21T03:57:13;7.20;73.60
22006;DHT22;11167;46.988;15.470;2024-02-21T03:59:14;7.20;73.60
22006;DHT22;11167;46.988;15.470;2024-02-21T04:01:16;7.20;73.60
22006;DHT22;11167;46.988;15.470;2024-02-21T04:03:19;7.20;73.60
22006;DHT22;11167;46.988;15.470;2024-02-21T04:05:20;7.20;73.60
22006;DHT22;11167;46.988;15.470;2024-02-21T04:07:21;7.20;73.70
22006;DHT22;11167;46.988;15.470;2024-02-21T04:09:23;7.20;73.80
22006;DHT22;11167;46.988;15.470;2024-02-21T04:11:24;7.20;73.80
22006;DHT22;11167;46.988;15.470;2024-02-21T04:13:25;7.20;73.80
22006;DHT22;11167;46.988;15.470;2024-02-21T04:15:26;7.20;73.80
22006;DHT22;11167;46.988;15.470;2024-02-21T04:17:27;7.20;73.80
22006;DHT22;11167;46.988;15.470;2024-02-21T04:19:29;7.20;73.80
22006;DHT22;11167;46.988;15.470;2024-02-21T04:21:33;7.10;73.70
22006;DHT22;11167;46.988;15.470;2024-02-21T04:23:34;7.10;73.80
22006;DHT22;11167;46.988;15.470;2024-02-21T04:25:36;7.10;73.80
22006;DHT22;11167;46.988;15.470;2024-02-21T04:27:39;7.10;73.80
22006;DHT22;11167;46.988;15.470;2024-02-21T04:29:40;7.10;73.70
22006;DHT22;11167;46.988;15.470;2024-02-21T04:31:42;7.10;73.70
22006;DHT22;11167;46.988;15.470;2024-02-21T04:33:43;7.10;73.70
22006;DHT22;11167;46.988;15.470;2024-02-21T04:35:44;7.10;73.90
22006;DHT22;11167;46.988;15.470;2024-02-21T04:37:45;7.10;73.80
22006;DHT22;11167;46.988;15.470;2024-02-21T04:39:49;7.10;73.80
22006;DHT22;11167;46.988;15.470;2024-02-21T04:41:50;7.10;73.80
22006;DHT22;11167;46.988;15.470;2024-02-21T04:43:51;7.10;74.60
22006;DHT22;11167;46.988;15.470;2024-02-21T04:45:52;7.10;73.80
22006;DHT22;11167;46.988;15.470;2024-02-21T04:47:54;7.10;73.80
22006;DHT22;11167;46.988;15.470;2024-02-21T04:49:55;7.10;73.90
22006;DHT22;11167;46.988;15.470;2024-02-21T04:51:56;7.00;73.80
22006;DHT22;11167;46.988;15.470;2024-02-21T04:53:57;7.00;73.80
22006;DHT22;11167;46.988;15.470;2024-02-21T04:56:00;7.00;73.80
22006;DHT22;11167;46.988;15.470;2024-02-21T04:58:01;7.00;73.90
22006;DHT22;11167;46.988;15.470;2024-02-21T05:00:03;7.00;73.80
22006;DHT22;11167;46.988;15.470;2024-02-21T05:02:05;7.00;73.80
22006;DHT22;11167;46.988;15.470;2024-02-21T05:04:06;7.00;73.80
22006;DHT22;11167;46.988;15.470;2024-02-21T05:06:08;7.00;73.90
22006;DHT22;11167;46.988;15.470;2024-02-21T05:08:10;7.00;73.80
22006;DHT22;11167;46.988;15.470;2024-02-21T05:10:11;7.00;73.90
22006;DHT22;11167;46.988;15.470;2024-02-21T05:12:12;7.00;73.90
22006;DHT22;11167;46.988;15.470;2024-02-21T05:14:13;7.00;74.00
22006;DHT22;11167;46.988;15.470;2024-02-21T05:16:15;7.00;74.00
22006;DHT22;11167;46.988;15.470;2024-02-21T05:18:16;7.00;74.00
22006;DHT22;11167;46.988;15.470;2024-02-21T05:20:17;7.00;74.00
22006;DHT22;11167;46.988;15.470;2024-02-21T05:22:19;7.00;74.00
22006;DHT22;11167;46.988;15.470;2024-02-21T05:24:22;7.00;74.00
22006;DHT22;11167;46.988;15.470;2024-02-21T05:26:24;7.00;74.00
22006;DHT22;11167;46.988;15.470;2024-02-21T05:28:26;7.00;74.00
22006;DHT22;11167;46.988;15.470;2024-02-21T05:30:28;7.00;74.00
22006;DHT22;11167;46.988;15.470;2024-02-21T05:32:29;7.00;74.10
22006;DHT22;11167;46.988;15.470;2024-02-21T05:34:30;6.90;74.00
22006;DHT22;11167;46.988;15.470;2024-02-21T05:36:31;6.90;74.10
22006;DHT22;11167;46.988;15.470;2024-02-21T05:38:33;6.90;74.10
22006;DHT22;11167;46.988;15.470;2024-02-21T05:40:34;6.90;74.20
22006;DHT22;11167;46.988;15.470;2024-02-21T05:42:35;6.90;74.10
22006;DHT22;11167;46.988;15.470;2024-02-21T05:44:36;6.90;74.20
22006;DHT22;11167;46.988;15.470;2024-02-21T05:46:37;6.90;74.20
22006;DHT22;11167;46.988;15.470;2024-02-21T05:48:38;6.90;75.00
22006;DHT22;11167;46.988;15.470;2024-02-21T05:50:40;6.90;74.30
22006;DHT22;11167;46.988;15.470;2024-02-21T05:52:41;6.90;74.20
22006;DHT22;11167;46.988;15.470;2024-02-21T05:54:43;6.90;74.10
22006;DHT22;11167;46.988;15.470;2024-02-21T05:56:45;6.90;74.20
22006;DHT22;11167;46.988;15.470;2024-02-21T05:58:46;6.90;74.30
22006;DHT22;11167;46.988;15.470;2024-02-21T06:00:48;6.90;74.30
22006;DHT22;11167;46.988;15.470;2024-02-21T06:02:49;6.90;74.30
22006;DHT22;11167;46.988;15.470;2024-02-21T06:04:50;6.90;74.30
22006;DHT22;11167;46.988;15.470;2024-02-21T06:06:51;6.90;74.30
22006;DHT22;11167;46.988;15.470;2024-02-21T06:08:54;6.90;74.30
22006;DHT22;11167;46.988;15.470;2024-02-21T06:10:55;6.80;74.30
22006;DHT22;11167;46.988;15.470;2024-02-21T06:12:57;6.90;74.30
22006;DHT22;11167;46.988;15.470;2024-02-21T06:14:58;6.80;74.30
22006;DHT22;11167;46.988;15.470;2024-02-21T06:16:59;6.80;74.20
22006;DHT22;11167;46.988;15.470;2024-02-21T06:19:00;6.80;74.30
22006;DHT22;11167;46.988;15.470;2024-02-21T06:21:01;6.80;74.30
22006;DHT22;11167;46.988;15.470;2024-02-21T06:23:03;6.80;74.30
22006;DHT22;11167;46.988;15.470;2024-02-21T06:25:04;6.80;74.40
22006;DHT22;11167;46.988;15.470;2024-02-21T06:27:06;6.80;74.30
22006;DHT22;11167;46.988;15.470;2024-02-21T06:29:07;6.80;74.30
22006;DHT22;11167;46.988;15.470;2024-02-21T06:31:08;6.80;74.30
22006;DHT22;11167;46.988;15.470;2024-02-21T06:33:10;6.80;74.30
22006;DHT22;11167;46.988;15.470;2024-02-21T06:35:11;6.80;74.40
22006;DHT22;11167;46.988;15.470;2024-02-21T06:37:12;6.80;74.40
22006;DHT22;11167;46.988;15.470;2024-02-21T06:39:13;6.80;74.40
22006;DHT22;11167;46.988;15.470;2024-02-21T06:41:18;6.80;74.40
22006;DHT22;11167;46.988;15.470;2024-02-21T06:43:20;6.80;74.40
22006;DHT22;11167;46.988;15.470;2024-02-21T06:45:22;6.80;74.40
22006;DHT22;11167;46.988;15.470;2024-02-21T06:47:23;6.80;74.50
22006;DHT22;11167;46.988;15.470;2024-02-21T06:49:24;6.70;74.40
22006;DHT22;11167;46.988;15.470;2024-02-21T06:51:26;6.70;74.50
22006;DHT22;11167;46.988;15.470;2024-02-21T06:53:28;6.70;74.30
22006;DHT22;11167;46.988;15.470;2024-02-21T06:55:29;6.70;74.30
22006;DHT22;11167;46.988;15.470;2024-02-21T06:57:30;6.70;74.40
22006;DHT22;11167;46.988;15.470;2024-02-21T06:59:31;6.70;74.50
22006;DHT22;11167;46.988;15.470;2024-02-21T07:01:32;6.70;74.40
22006;DHT22;11167;46.988;15.470;2024-02-21T07:03:33;6.70;74.40
22006;DHT22;11167;46.988;15.470;2024-02-21T07:05:34;6.70;73.90
22006;DHT22;11167;46.988;15.470;2024-02-21T07:07:36;6.70;74.50
22006;DHT22;11167;46.988;15.470;2024-02-21T07:09:37;6.70;74.30
22006;DHT22;11167;46.988;15.470;2024-02-21T07:11:38;6.70;74.40
22006;DHT22;11167;46.988;15.470;2024-02-21T07:13:39;6.70;74.40
22006;DHT22;11167;46.988;15.470;2024-02-21T07:15:40;6.70;74.50
22006;DHT22;11167;46.988;15.470;2024-02-21T07:17:43;6.70;74.30
22006;DHT22;11167;46.988;15.470;2024-02-21T07:19:44;6.70;74.50
22006;DHT22;11167;46.988;15.470;2024-02-21T07:21:45;6.70;74.50
22006;DHT22;11167;46.988;15.470;2024-02-21T07:23:46;6.70;74.40
22006;DHT22;11167;46.988;15.470;2024-02-21T07:25:47;6.70;74.40
22006;DHT22;11167;46.988;15.470;2024-02-21T07:27:48;6.70;74.50
22006;DHT22;11167;46.988;15.470;2024-02-21T07:29:49;6.70;74.50
22006;DHT22;11167;46.988;15.470;2024-02-21T07:31:51;6.60;74.50
22006;DHT22;11167;46.988;15.470;2024-02-21T07:33:52;6.60;74.40
22006;DHT22;11167;46.988;15.470;2024-02-21T07:35:54;6.60;74.30
22006;DHT22;11167;46.988;15.470;2024-02-21T07:37:56;6.60;74.40
22006;DHT22;11167;46.988;15.470;2024-02-21T07:39:57;6.60;74.50
22006;DHT22;11167;46.988;15.470;2024-02-21T07:41:58;6.60;74.40
22006;DHT22;11167;46.988;15.470;2024-02-21T07:43:59;6.60;74.40
22006;DHT22;11167;46.988;15.470;2024-02-21T07:46:01;6.60;74.50
22006;DHT22;11167;46.988;15.470;2024-02-21T07:48:02;6.60;74.40
22006;DHT22;11167;46.988;15.470;2024-02-21T07:50:04;6.60;74.50
22006;DHT22;11167;46.988;15.470;2024-02-21T07:52:05;6.60;74.30
22006;DHT22;11167;46.988;15.470;2024-02-21T07:54:06;6.60;74.40
22006;DHT22;11167;46.988;15.470;2024-02-21T07:56:08;6.60;74.40
22006;DHT22;11167;46.988;15.470;2024-02-21T07:58:09;6.60;74.50
22006;DHT22;11167;46.988;15.470;2024-02-21T08:00:10;6.60;74.40
22006;DHT22;11167;46.988;15.470;2024-02-21T08:02:15;6.60;74.50
22006;DHT22;11167;46.988;15.470;2024-02-21T08:04:16;6.60;74.40
22006;DHT22;11167;46.988;15.470;2024-02-21T08:06:17;6.60;74.40
22006;DHT22;11167;46.988;15.470;2024-02-21T08:08:18;6.60;74.50
22006;DHT22;11167;46.988;15.470;2024-02-21T08:10:21;6.60;74.80
22006;DHT22;11167;46.988;15.470;2024-02-21T08:12:22;6.60;74.50
22006;DHT22;11167;46.988;15.470;2024-02-21T08:14:24;6.60;74.50
22006;DHT22;11167;46.988;15.470;2024-02-21T08:16:26;6.60;74.50
22006;DHT22;11167;46.988;15.470;2024-02-21T08:18:27;6.60;74.50
22006;DHT22;11167;46.988;15.470;2024-02-21T08:20:29;6.60;74.40
22006;DHT22;11167;46.988;15.470;2024-02-21T08:22:30;6.60;74.50
22006;DHT22;11167;46.988;15.470;2024-02-21T08:24:31;6.60;74.50
22006;DHT22;11167;46.988;15.470;2024-02-21T08:26:33;6.60;74.50
22006;DHT22;11167;46.988;15.470;2024-02-21T08:28:34;6.60;74.50
22006;DHT22;11167;46.988;15.470;2024-02-21T08:30:35;6.60;74.40
22006;DHT22;11167;46.988;15.470;2024-02-21T08:32:37;6.60;74.50
22006;DHT22;11167;46.988;15.470;2024-02-21T08:34:38;6.60;74.50
22006;DHT22;11167;46.988;15.470;2024-02-21T08:36:39;6.60;74.40
22006;DHT22;11167;46.988;15.470;2024-02-21T08:38:40;6.60;75.30
22006;DHT22;11167;46.988;15.470;2024-02-21T08:40:41;6.60;74.50
22006;DHT22;11167;46.988;15.470;2024-02-21T08:42:43;6.60;74.50
22006;DHT22;11167;46.988;15.470;2024-02-21T08:44:45;6.60;74.40
22006;DHT22;11167;46.988;15.470;2024-02-21T08:46:46;6.60;74.10
22006;DHT22;11167;46.988;15.470;2024-02-21T08:48:47;6.60;74.40
22006;DHT22;11167;46.988;15.470;2024-02-21T08:50:49;6.60;74.40
22006;DHT22;11167;46.988;15.470;2024-02-21T08:52:50;6.70;74.50
22006;DHT22;11167;46.988;15.470;2024-02-21T08:54:51;6.70;74.50
22006;DHT22;11167;46.988;15.470;2024-02-21T08:56:54;6.70;74.50
22006;DHT22;11167;46.988;15.470;2024-02-21T08:58:56;6.70;74.50
22006;DHT22;11167;46.988;15.470;2024-02-21T09:00:58;6.70;74.50
22006;DHT22;11167;46.988;15.470;2024-02-21T09:02:59;6.70;74.40
22006;DHT22;11167;46.988;15.470;2024-02-21T09:05:00;6.70;75.20
22006;DHT22;11167;46.988;15.470;2024-02-21T09:07:01;6.70;74.60
22006;DHT22;11167;46.988;15.470;2024-02-21T09:09:03;6.70;74.50
22006;DHT22;11167;46.988;15.470;2024-02-21T09:11:06;6.70;74.50
22006;DHT22;11167;46.988;15.470;2024-02-21T09:13:07;6.70;75.30
22006;DHT22;11167;46.988;15.470;2024-02-21T09:15:10;6.70;74.50
22006;DHT22;11167;46.988;15.470;2024-02-21T09:17:11;6.80;75.40
22006;DHT22;11167;46.988;15.470;2024-02-21T09:19:13;6.70;74.50
22006;DHT22;11167;46.988;15.470;2024-02-21T09:21:14;6.70;74.80
22006;DHT22;11167;46.988;15.470;2024-02-21T09:23:16;6.80;74.50
22006;DHT22;11167;46.988;15.470;2024-02-21T09:25:18;6.80;74.90
22006;DHT22;11167;46.988;15.470;2024-02-21T09:27:19;6.80;74.50
22006;DHT22;11167;46.988;15.470;2024-02-21T09:29:20;6.80;74.50
22006;DHT22;11167;46.988;15.470;2024-02-21T09:31:21;6.80;74.70
22006;DHT22;11167;46.988;15.470;2024-02-21T09:33:23;6.80;74.50
22006;DHT22;11167;46.988;15.470;2024-02-21T09:35:24;6.80;74.70
22006;DHT22;11167;46.988;15.470;2024-02-21T09:37:27;6.80;74.70
22006;DHT22;11167;46.988;15.470;2024-02-21T09:39:28;6.90;74.70
22006;DHT22;11167;46.988;15.470;2024-02-21T09:41:29;6.90;74.70
22006;DHT22;11167;46.988;15.470;2024-02-21T09:43:31;6.90;75.60
22006;DHT22;11167;46.988;15.470;2024-02-21T09:45:35;6.90;74.70
22006;DHT22;11167;46.988;15.470;2024-02-21T09:50:06;6.90;75.50
22006;DHT22;11167;46.988;15.470;2024-02-21T09:52:07;7.00;74.80
22006;DHT22;11167;46.988;15.470;2024-02-21T09:54:08;7.00;74.80
22006;DHT22;11167;46.988;15.470;2024-02-21T09:56:09;7.00;74.80
22006;DHT22;11167;46.988;15.470;2024-02-21T09:58:11;7.00;74.90
22006;DHT22;11167;46.988;15.470;2024-02-21T10:00:14;7.00;75.70
22006;DHT22;11167;46.988;15.470;2024-02-21T10:02:16;7.00;75.00
22006;DHT22;11167;46.988;15.470;2024-02-21T10:04:20;7.10;75.20
22006;DHT22;11167;46.988;15.470;2024-02-21T10:06:21;7.10;75.00
22006;DHT22;11167;46.988;15.470;2024-02-21T10:08:23;7.10;75.00
22006;DHT22;11167;46.988;15.470;2024-02-21T10:10:24;7.10;75.00
22006;DHT22;11167;46.988;15.470;2024-02-21T10:12:25;7.10;75.10
22006;DHT22;11167;46.988;15.470;2024-02-21T10:14:26;7.20;75.10
22006;DHT22;11167;46.988;15.470;2024-02-21T10:16:28;7.20;75.10
22006;DHT22;11167;46.988;15.470;2024-02-21T10:18:29;7.20;75.10
22006;DHT22;11167;46.988;15.470;2024-02-21T10:20:31;7.20;75.20
22006;DHT22;11167;46.988;15.470;2024-02-21T10:22:32;7.30;75.10
22006;DHT22;11167;46.988;15.470;2024-02-21T10:24:36;7.30;75.30
22006;DHT22;11167;46.988;15.470;2024-02-21T10:26:43;7.30;75.20
22006;DHT22;11167;46.988;15.470;2024-02-21T10:28:44;7.30;75.10
22006;DHT22;11167;46.988;15.470;2024-02-21T10:30:50;7.30;75.10
22006;DHT22;11167;46.988;15.470;2024-02-21T10:32:53;7.40;75.20
22006;DHT22;11167;46.988;15.470;2024-02-21T10:35:04;7.40;75.20
22006;DHT22;11167;46.988;15.470;2024-02-21T10:37:09;7.40;75.10
22006;DHT22;11167;46.988;15.470;2024-02-21T10:39:11;7.40;75.10
22006;DHT22;11167;46.988;15.470;2024-02-21T10:41:14;7.40;75.10
22006;DHT22;11167;46.988;15.470;2024-02-21T10:43:17;7.50;75.30
22006;DHT22;11167;46.988;15.470;2024-02-21T10:45:20;7.50;75.30
22006;DHT22;11167;46.988;15.470;2024-02-21T10:47:23;7.50;75.30
22006;DHT22;11167;46.988;15.470;2024-02-21T10:49:29;7.50;75.80
22006;DHT22;11167;46.988;15.470;2024-02-21T10:51:33;7.60;75.30
22006;DHT22;11167;46.988;15.470;2024-02-21T10:53:44;7.60;75.30
22006;DHT22;11167;46.988;15.470;2024-02-21T10:55:46;7.60;75.30
22006;DHT22;11167;46.988;15.470;2024-02-21T10:58:09;7.70;75.50
22006;DHT22;11167;46.988;15.470;2024-02-21T11:00:14;7.70;75.40
22006;DHT22;11167;46.988;15.470;2024-02-21T11:02:16;7.70;75.40
22006;DHT22;11167;46.988;15.470;2024-02-21T11:04:18;7.70;75.40
22006;DHT22;11167;46.988;15.470;2024-02-21T11:06:20;7.80;75.50
22006;DHT22;11167;46.988;15.470;2024-02-21T11:08:22;7.80;75.50
22006;DHT22;11167;46.988;15.470;2024-02-21T11:10:26;7.80;75.50
22006;DHT22;11167;46.988;15.470;2024-02-21T11:12:28;7.80;75.50
22006;DHT22;11167;46.988;15.470;2024-02-21T11:14:29;7.90;75.60
22006;DHT22;11167;46.988;15.470;2024-02-21T11:16:37;7.90;75.70
22006;DHT22;11167;46.988;15.470;2024-02-21T11:18:39;7.90;75.50
22006;DHT22;11167;46.988;15.470;2024-02-21T11:20:49;8.00;75.60
22006;DHT22;11167;46.988;15.470;2024-02-21T11:22:45;8.00;75.60
22006;DHT22;11167;46.988;15.470;2024-02-21T11:24:48;8.00;75.60
22006;DHT22;11167;46.988;15.470;2024-02-21T11:26:49;8.10;75.70
22006;DHT22;11167;46.988;15.470;2024-02-21T11:29:01;8.10;75.80
22006;DHT22;11167;46.988;15.470;2024-02-21T11:31:14;8.10;75.80
22006;DHT22;11167;46.988;15.470;2024-02-21T11:33:16;8.20;75.70
22006;DHT22;11167;46.988;15.470;2024-02-21T11:35:21;8.20;75.70
22006;DHT22;11167;46.988;15.470;2024-02-21T11:37:24;8.30;75.70
22006;DHT22;11167;46.988;15.470;2024-02-21T11:39:26;8.30;75.80
22006;DHT22;11167;46.988;15.470;2024-02-21T11:41:27;8.30;75.80
22006;DHT22;11167;46.988;15.470;2024-02-21T11:43:29;8.40;75.80
22006;DHT22;11167;46.988;15.470;2024-02-21T11:45:30;8.40;76.00
22006;DHT22;11167;46.988;15.470;2024-02-21T11:47:33;8.40;75.90
22006;DHT22;11167;46.988;15.470;2024-02-21T11:49:47;8.50;75.90
22006;DHT22;11167;46.988;15.470;2024-02-21T11:52:02;8.50;76.00
22006;DHT22;11167;46.988;15.470;2024-02-21T11:54:06;8.60;76.00
22006;DHT22;11167;46.988;15.470;2024-02-21T11:56:07;8.60;76.00
22006;DHT22;11167;46.988;15.470;2024-02-21T11:58:08;8.60;75.90
22006;DHT22;11167;46.988;15.470;2024-02-21T12:00:14;8.70;76.80
22006;DHT22;11167;46.988;15.470;2024-02-21T12:02:17;8.70;75.90
22006;DHT22;11167;46.988;15.470;2024-02-21T12:04:22;8.80;76.10
22006;DHT22;11167;46.988;15.470;2024-02-21T12:06:27;8.80;75.90
22006;DHT22;11167;46.988;15.470;2024-02-21T12:08:43;8.90;76.00
22006;DHT22;11167;46.988;15.470;2024-02-21T12:10:44;8.90;76.00
22006;DHT22;11167;46.988;15.470;2024-02-21T12:12:45;9.00;76.00
22006;DHT22;11167;46.988;15.470;2024-02-21T12:14:46;9.00;76.10
22006;DHT22;11167;46.988;15.470;2024-02-21T12:16:47;9.10;76.10
22006;DHT22;11167;46.988;15.470;2024-02-21T12:18:52;9.10;76.10
22006;DHT22;11167;46.988;15.470;2024-02-21T12:20:54;9.10;76.50
22006;DHT22;11167;46.988;15.470;2024-02-21T12:22:55;9.20;76.10
22006;DHT22;11167;46.988;15.470;2024-02-21T12:24:59;9.20;76.10
22006;DHT22;11167;46.988;15.470;2024-02-21T12:27:00;9.30;76.10
22006;DHT22;11167;46.988;15.470;2024-02-21T12:29:03;9.30;76.10
22006;DHT22;11167;46.988;15.470;2024-02-21T12:31:04;9.40;76.10
22006;DHT22;11167;46.988;15.470;2024-02-21T12:33:05;9.40;76.20
22006;DHT22;11167;46.988;15.470;2024-02-21T12:35:07;9.50;76.30
22006;DHT22;11167;46.988;15.470;2024-02-21T12:37:08;9.50;76.10
22006;DHT22;11167;46.988;15.470;2024-02-21T12:39:11;9.60;76.20
22006;DHT22;11167;46.988;15.470;2024-02-21T12:41:12;9.60;76.20
22006;DHT22;11167;46.988;15.470;2024-02-21T12:43:14;9.70;76.20
22006;DHT22;11167;46.988;15.470;2024-02-21T12:45:15;9.70;76.40
22006;DHT22;11167;46.988;15.470;2024-02-21T12:47:16;9.80;76.20
22006;DHT22;11167;46.988;15.470;2024-02-21T12:49:19;9.80;76.20
22006;DHT22;11167;46.988;15.470;2024-02-21T12:51:20;9.80;76.10